Time;durP1;ratioP1;P1;durP2;ratioP2;P2;SDS_P1;SDS_P2;PMS_P1;PMS_P2;Temp;Humidity;BMP_temperature;BMP_pressure;BME280_temperature;BME280_humidity;BME280_pressure;Samples;Min_cycle;Max_cycle;Signal;HPM_P1;HPM_P2
2021/05/03 00:01:27;;;;;;;6.38;3.75;;;5.50;99.90;;;;;;5031554;28;20287;-70
2021/05/03 00:03:54;;;;;;;10.85;4.45;;;5.50;99.90;;;;;;5033038;28;20302;-69
2021/05/03 00:06:21;;;;;;;4.50;4.10;;;5.50;99.90;;;;;;5034303;28;20224;-69
2021/05/03 00:08:47;;;;;;;9.18;3.90;;;5.40;99.90;;;;;;5032620;28;20204;-69
2021/05/03 00:11:14;;;;;;;3.92;3.13;;;5.40;99.90;;;;;;5036057;28;20201;-71
2021/05/03 00:13:41;;;;;;;3.95;3.53;;;5.50;99.90;;;;;;5034828;28;20579;-71
2021/05/03 00:16:08;;;;;;;4.32;3.70;;;5.40;99.90;;;;;;5034301;28;20244;-69
2021/05/03 00:18:35;;;;;;;4.35;3.47;;;5.50;99.90;;;;;;5034812;28;20671;-73
2021/05/03 00:21:02;;;;;;;3.67;3.38;;;5.50;99.90;;;;;;5035038;28;20208;-72
2021/05/03 00:23:30;;;;;;;5.10;3.88;;;5.40;99.90;;;;;;5035380;28;20254;-71
2021/05/03 00:25:56;;;;;;;6.85;4.82;;;5.50;99.90;;;;;;5033275;28;20228;-70
2021/05/03 00:28:23;;;;;;;5.10;3.95;;;5.50;99.90;;;;;;5034048;28;20204;-71
2021/05/03 00:30:51;;;;;;;6.00;4.90;;;5.50;99.90;;;;;;5034851;28;20204;-70
2021/05/03 00:33:17;;;;;;;4.22;3.80;;;5.50;99.90;;;;;;5034469;28;20204;-70
2021/05/03 00:35:45;;;;;;;4.32;3.70;;;5.50;99.90;;;;;;5034681;28;20223;-70
2021/05/03 00:38:11;;;;;;;7.95;4.20;;;5.50;99.90;;;;;;5034390;28;20212;-70
2021/05/03 00:40:39;;;;;;;6.30;4.22;;;5.50;99.90;;;;;;5035678;28;20200;-71
2021/05/03 00:43:06;;;;;;;6.75;4.78;;;5.50;99.90;;;;;;5035570;28;20212;-70
2021/05/03 00:45:33;;;;;;;8.75;4.35;;;5.50;99.90;;;;;;5031633;28;20225;-70
2021/05/03 00:48:00;;;;;;;5.40;4.72;;;5.50;99.90;;;;;;5035497;28;20211;-69
2021/05/03 00:50:29;;;;;;;5.18;4.38;;;5.50;99.90;;;;;;5032776;28;20219;-69
2021/05/03 00:52:57;;;;;;;6.88;4.50;;;5.50;99.90;;;;;;5034860;28;20200;-71
2021/05/03 00:55:24;;;;;;;4.35;3.42;;;5.50;99.90;;;;;;5033333;28;20227;-70
2021/05/03 00:57:52;;;;;;;4.82;4.43;;;5.50;99.90;;;;;;5034877;28;20202;-69
2021/05/03 01:00:20;;;;;;;4.75;3.67;;;5.50;99.90;;;;;;5034031;28;20199;-70
2021/05/03 01:02:47;;;;;;;4.25;3.53;;;5.50;99.90;;;;;;5034107;28;20207;-69
2021/05/03 01:05:15;;;;;;;5.43;4.57;;;5.50;99.90;;;;;;5033860;28;20224;-69
2021/05/03 01:07:41;;;;;;;5.45;4.53;;;5.50;99.90;;;;;;5033965;28;20255;-69
2021/05/03 01:10:11;;;;;;;7.43;4.40;;;5.50;99.90;;;;;;5034245;28;20205;-71
2021/05/03 01:12:38;;;;;;;6.20;4.45;;;5.40;99.90;;;;;;5033513;28;20598;-71
2021/05/03 01:15:06;;;;;;;4.40;3.92;;;5.40;99.90;;;;;;5034452;28;20307;-73
2021/05/03 01:17:33;;;;;;;4.65;3.47;;;5.40;99.90;;;;;;5033959;28;20262;-72
2021/05/03 01:20:09;;;;;;;5.68;4.40;;;5.40;99.90;;;;;;5033127;28;20751;-70
2021/05/03 01:22:37;;;;;;;5.22;4.07;;;5.40;99.90;;;;;;5033988;28;20216;-72
2021/05/03 01:25:06;;;;;;;4.22;3.70;;;5.50;99.90;;;;;;5033960;28;20208;-70
2021/05/03 01:27:34;;;;;;;5.35;4.47;;;5.40;99.90;;;;;;5033825;28;20227;-70
2021/05/03 01:30:01;;;;;;;6.05;4.10;;;5.40;99.90;;;;;;5032994;28;20258;-69
2021/05/03 01:32:29;;;;;;;7.30;4.28;;;5.40;99.90;;;;;;5033746;28;20214;-70
2021/05/03 01:34:56;;;;;;;7.47;4.07;;;5.40;99.90;;;;;;5029921;28;20659;-69
2021/05/03 01:37:23;;;;;;;4.05;3.65;;;5.40;99.90;;;;;;5034332;28;20204;-69
2021/05/03 01:39:51;;;;;;;8.05;4.25;;;5.40;99.90;;;;;;5033001;28;20209;-70
2021/05/03 01:42:18;;;;;;;5.55;4.13;;;5.40;99.90;;;;;;5033230;28;20212;-72
2021/05/03 01:44:46;;;;;;;8.05;4.22;;;5.40;99.90;;;;;;5032923;28;20232;-69
2021/05/03 01:47:13;;;;;;;5.25;4.57;;;5.40;99.90;;;;;;5030182;28;20228;-69
2021/05/03 01:49:41;;;;;;;7.45;4.65;;;5.40;99.90;;;;;;5029719;28;20266;-70
2021/05/03 01:52:08;;;;;;;7.57;3.90;;;5.40;99.90;;;;;;5033199;28;20291;-74
2021/05/03 01:54:35;;;;;;;6.47;4.72;;;5.40;99.90;;;;;;5033622;28;20204;-70
2021/05/03 01:57:02;;;;;;;5.72;4.68;;;5.50;99.90;;;;;;5032060;28;20551;-69
2021/05/03 01:59:34;;;;;;;5.43;4.93;;;5.50;99.90;;;;;;5032293;28;20212;-69
2021/05/03 02:02:01;;;;;;;5.30;4.80;;;5.40;99.90;;;;;;5032483;28;20638;-70
2021/05/03 02:04:27;;;;;;;5.00;4.50;;;5.40;99.90;;;;;;5033324;28;20212;-70
2021/05/03 02:06:54;;;;;;;9.77;4.93;;;5.40;99.90;;;;;;5033059;28;20620;-71
2021/05/03 02:09:21;;;;;;;8.52;5.80;;;5.40;99.90;;;;;;5030493;28;20588;-69
2021/05/03 02:11:47;;;;;;;8.10;5.13;;;5.30;99.90;;;;;;5033343;28;20204;-70
2021/05/03 02:14:15;;;;;;;6.28;5.28;;;5.40;99.90;;;;;;5032418;28;20204;-71
2021/05/03 02:16:43;;;;;;;9.32;5.63;;;5.40;99.90;;;;;;5032013;28;20232;-70
2021/05/03 02:19:09;;;;;;;8.35;5.47;;;5.40;99.90;;;;;;5032101;28;20204;-70
2021/05/03 02:21:36;;;;;;;6.22;5.28;;;5.40;99.90;;;;;;5032753;28;20307;-70
2021/05/03 02:24:04;;;;;;;8.60;5.63;;;5.40;99.90;;;;;;5032841;28;20262;-72
2021/05/03 02:26:31;;;;;;;6.85;5.80;;;5.50;99.90;;;;;;5031071;28;20242;-68
2021/05/03 02:28:57;;;;;;;8.23;5.50;;;5.60;99.90;;;;;;5022330;28;20683;-71
2021/05/03 02:31:25;;;;;;;8.13;5.50;;;5.70;99.90;;;;;;5032448;28;20204;-69
2021/05/03 02:33:52;;;;;;;9.38;5.82;;;5.60;99.90;;;;;;5032742;28;20207;-69
2021/05/03 02:36:19;;;;;;;6.93;4.82;;;5.60;99.90;;;;;;5031225;28;20629;-69
2021/05/03 02:38:46;;;;;;;7.03;6.32;;;5.60;99.90;;;;;;5025299;28;20197;-70
2021/05/03 02:41:12;;;;;;;7.03;5.28;;;5.50;99.90;;;;;;5031353;28;20204;-69
2021/05/03 02:43:39;;;;;;;8.13;6.25;;;5.50;99.90;;;;;;5030166;28;20566;-70
2021/05/03 02:46:06;;;;;;;8.00;5.85;;;5.50;99.90;;;;;;5030330;28;20224;-71
2021/05/03 02:48:34;;;;;;;7.68;5.32;;;5.40;99.90;;;;;;5029526;28;20208;-70
2021/05/03 02:51:00;;;;;;;9.40;6.55;;;5.50;99.90;;;;;;5029594;28;20231;-70
2021/05/03 02:53:27;;;;;;;9.15;6.65;;;5.40;99.90;;;;;;5032004;28;20204;-69
2021/05/03 02:55:54;;;;;;;10.10;7.50;;;5.40;99.90;;;;;;5029812;28;20613;-70
2021/05/03 02:58:20;;;;;;;7.55;6.22;;;5.30;99.90;;;;;;5017147;28;20216;-69
2021/05/03 03:00:47;;;;;;;6.78;5.60;;;5.30;99.90;;;;;;5030947;28;20222;-69
2021/05/03 03:03:14;;;;;;;7.13;6.25;;;5.30;99.90;;;;;;5025712;28;20216;-68
2021/05/03 03:05:41;;;;;;;11.27;8.00;;;5.30;99.90;;;;;;5032032;28;20246;-69
2021/05/03 03:08:08;;;;;;;7.93;6.32;;;5.30;99.90;;;;;;5032201;28;20204;-69
2021/05/03 03:10:35;;;;;;;7.95;6.30;;;5.30;99.90;;;;;;5031429;28;20209;-69
2021/05/03 03:13:03;;;;;;;8.57;6.70;;;5.40;99.90;;;;;;5032175;28;20201;-69
2021/05/03 03:15:32;;;;;;;11.43;6.20;;;5.40;99.90;;;;;;5031633;28;20228;-69
2021/05/03 03:18:00;;;;;;;8.85;7.32;;;5.50;99.90;;;;;;5029075;28;20250;-69
2021/05/03 03:20:27;;;;;;;7.60;6.85;;;5.40;99.90;;;;;;5031500;28;20211;-71
2021/05/03 03:22:55;;;;;;;8.23;6.90;;;5.30;99.90;;;;;;5031851;28;20239;-69
2021/05/03 03:25:22;;;;;;;12.43;7.50;;;5.20;99.90;;;;;;5031873;28;20248;-70
2021/05/03 03:27:49;;;;;;;10.35;7.38;;;5.20;99.90;;;;;;5031672;28;20232;-70
2021/05/03 03:30:17;;;;;;;11.48;7.53;;;5.20;99.90;;;;;;5030745;28;20212;-69
2021/05/03 03:32:45;;;;;;;8.60;7.22;;;5.20;99.90;;;;;;5031330;28;20544;-70
2021/05/03 03:35:13;;;;;;;9.02;7.05;;;5.20;99.90;;;;;;5032791;28;20235;-71
2021/05/03 03:37:40;;;;;;;12.77;7.65;;;5.10;99.90;;;;;;5036242;28;20202;-70
2021/05/03 03:40:10;;;;;;;7.05;6.28;;;5.10;99.90;;;;;;5034930;28;20207;-70
2021/05/03 03:42:36;;;;;;;8.25;6.75;;;5.00;99.90;;;;;;5035908;28;20204;-69
2021/05/03 03:45:05;;;;;;;12.05;8.73;;;5.00;99.90;;;;;;5035221;28;20283;-69
2021/05/03 03:47:32;;;;;;;12.23;7.78;;;5.00;99.90;;;;;;5029415;28;20239;-70
2021/05/03 03:49:58;;;;;;;8.50;6.70;;;4.90;99.90;;;;;;5034464;28;20218;-69
2021/05/03 03:52:25;;;;;;;11.60;8.45;;;4.90;99.90;;;;;;5035472;28;20214;-71
2021/05/03 03:54:52;;;;;;;10.02;7.65;;;4.90;99.90;;;;;;5034858;28;20667;-69
2021/05/03 03:57:20;;;;;;;8.32;7.30;;;4.90;99.90;;;;;;5034712;28;20223;-69
2021/05/03 03:59:50;;;;;;;10.35;7.50;;;4.90;99.90;;;;;;5034730;28;20262;-70
2021/05/03 04:02:17;;;;;;;10.10;7.78;;;4.90;99.90;;;;;;5034377;28;20208;-71
2021/05/03 04:04:48;;;;;;;11.95;7.43;;;4.90;99.90;;;;;;5035344;28;20216;-68
2021/05/03 04:07:20;;;;;;;7.25;5.93;;;4.90;99.90;;;;;;5034561;28;20297;-69
2021/05/03 04:09:53;;;;;;;12.23;7.88;;;4.90;99.90;;;;;;5034826;28;20200;-69
2021/05/03 04:12:42;;;;;;;15.65;8.75;;;4.90;99.90;;;;;;5033773;28;20204;-69
2021/05/03 04:26:05;;;;;;;8.50;7.30;;;4.90;99.90;;;;;;5022936;28;20271;-69
2021/05/03 04:28:32;;;;;;;12.52;8.50;;;4.90;99.90;;;;;;5033563;28;20235;-70
2021/05/03 04:30:59;;;;;;;8.75;6.35;;;4.90;99.90;;;;;;5034355;28;20208;-70
2021/05/03 04:33:25;;;;;;;8.40;7.53;;;5.00;99.90;;;;;;5033830;28;20682;-69
2021/05/03 04:35:53;;;;;;;9.43;8.13;;;5.00;99.90;;;;;;5033817;28;20302;-71
2021/05/03 04:38:20;;;;;;;13.82;7.18;;;5.00;99.90;;;;;;5034316;28;20212;-75
2021/05/03 04:40:47;;;;;;;11.38;6.80;;;5.10;99.90;;;;;;5034624;28;20211;-73
2021/05/03 04:43:13;;;;;;;9.50;8.00;;;5.20;99.90;;;;;;5034336;28;20437;-69
2021/05/03 04:45:41;;;;;;;11.25;8.43;;;5.30;99.90;;;;;;5029339;28;20486;-71
2021/05/03 04:48:08;;;;;;;11.05;8.32;;;5.40;99.90;;;;;;5032455;28;20257;-70
2021/05/03 04:50:35;;;;;;;8.55;6.95;;;5.40;99.90;;;;;;5033886;28;20208;-68
2021/05/03 04:53:02;;;;;;;6.95;5.45;;;5.80;99.90;;;;;;5035021;28;20204;-69
2021/05/03 04:55:28;;;;;;;13.52;7.10;;;6.40;99.90;;;;;;5032066;28;21513;-70
2021/05/03 04:57:55;;;;;;;7.50;5.75;;;6.80;99.90;;;;;;5031803;28;20200;-73
2021/05/03 05:00:23;;;;;;;6.45;5.80;;;7.40;99.90;;;;;;5032900;28;20197;-72
2021/05/03 05:02:50;;;;;;;7.90;5.28;;;7.70;99.90;;;;;;5032042;28;20220;-71
2021/05/03 05:05:17;;;;;;;10.65;5.88;;;8.50;99.90;;;;;;5033781;28;20230;-70
2021/05/03 05:07:44;;;;;;;7.10;5.35;;;9.10;99.90;;;;;;5030037;28;20236;-71
2021/05/03 05:10:12;;;;;;;10.00;5.72;;;9.30;99.90;;;;;;5033168;28;20197;-71
2021/05/03 05:12:39;;;;;;;6.53;5.70;;;9.80;99.90;;;;;;5033849;28;20200;-71
2021/05/03 05:15:08;;;;;;;5.47;4.97;;;10.40;99.90;;;;;;5033295;28;20223;-72
2021/05/03 05:17:36;;;;;;;5.20;4.65;;;10.80;99.90;;;;;;5034019;28;20208;-72
2021/05/03 05:20:06;;;;;;;5.88;4.60;;;11.70;99.90;;;;;;5032836;28;20207;-71
2021/05/03 05:22:33;;;;;;;7.80;5.72;;;12.20;97.70;;;;;;5034257;28;20218;-70
2021/05/03 05:25:00;;;;;;;5.47;4.97;;;12.70;96.40;;;;;;5032004;28;20229;-72
2021/05/03 05:27:27;;;;;;;6.63;5.93;;;12.30;95.10;;;;;;5033705;28;20218;-74
2021/05/03 05:29:53;;;;;;;7.63;5.05;;;11.00;97.00;;;;;;5031637;28;20609;-72
2021/05/03 05:32:20;;;;;;;5.30;4.80;;;10.70;99.20;;;;;;5029573;28;20554;-73
2021/05/03 05:34:47;;;;;;;8.63;5.60;;;10.10;99.90;;;;;;5033909;28;20284;-72
2021/05/03 05:37:15;;;;;;;7.20;6.00;;;9.60;99.90;;;;;;5033005;28;20606;-74
2021/05/03 05:39:41;;;;;;;5.75;5.20;;;9.10;99.90;;;;;;5033394;28;20252;-71
2021/05/03 05:42:10;;;;;;;5.28;4.70;;;8.70;99.90;;;;;;5032413;28;20573;-72
2021/05/03 05:44:37;;;;;;;14.98;10.45;;;8.50;99.90;;;;;;5033660;28;20678;-76
2021/05/03 05:47:04;;;;;;;8.68;5.97;;;8.50;99.90;;;;;;5033041;28;20233;-72
2021/05/03 05:49:30;;;;;;;6.68;5.72;;;8.40;99.90;;;;;;5039318;28;20275;-71
2021/05/03 05:51:57;;;;;;;7.85;6.38;;;8.30;99.90;;;;;;5033916;28;20250;-72
2021/05/03 05:54:25;;;;;;;6.70;6.03;;;8.30;99.90;;;;;;5032600;28;20573;-74
2021/05/03 05:56:54;;;;;;;7.25;5.95;;;8.10;99.90;;;;;;5032478;28;20226;-72
2021/05/03 05:59:21;;;;;;;9.25;7.90;;;8.00;99.90;;;;;;5032355;28;20248;-70
2021/05/03 06:01:48;;;;;;;7.55;6.03;;;8.10;99.90;;;;;;5032753;28;20226;-71
2021/05/03 06:04:15;;;;;;;8.15;5.35;;;7.90;99.90;;;;;;5032633;28;20253;-72
2021/05/03 06:06:42;;;;;;;6.50;5.40;;;7.80;99.90;;;;;;5032232;28;20295;-75
2021/05/03 06:09:09;;;;;;;10.20;6.25;;;7.80;99.90;;;;;;5031879;28;20652;-72
2021/05/03 06:11:36;;;;;;;14.88;6.70;;;7.70;99.90;;;;;;5033540;28;20211;-73
2021/05/03 06:14:03;;;;;;;8.82;5.18;;;7.60;99.90;;;;;;5033258;28;20202;-72
2021/05/03 06:16:30;;;;;;;7.30;5.93;;;7.50;99.90;;;;;;5032156;28;20565;-73
2021/05/03 06:18:57;;;;;;;9.75;6.40;;;7.40;99.90;;;;;;5032773;28;20261;-73
2021/05/03 06:21:23;;;;;;;11.07;7.68;;;7.40;99.90;;;;;;5031710;28;20209;-75
2021/05/03 06:23:50;;;;;;;7.63;6.82;;;7.30;99.90;;;;;;5031869;28;20232;-75
2021/05/03 06:26:17;;;;;;;19.50;7.60;;;7.30;99.90;;;;;;5032056;28;20226;-75
2021/05/03 06:28:44;;;;;;;8.93;6.95;;;7.20;99.90;;;;;;5032513;28;20209;-74
2021/05/03 06:31:11;;;;;;;8.55;7.40;;;7.20;99.90;;;;;;5032856;28;20205;-75
2021/05/03 06:33:38;;;;;;;8.52;7.55;;;7.10;99.90;;;;;;5032651;28;20205;-75
2021/05/03 06:36:06;;;;;;;8.02;6.65;;;7.10;99.90;;;;;;5031993;28;20695;-74
2021/05/03 06:38:32;;;;;;;10.70;6.88;;;7.10;99.90;;;;;;5031847;28;20720;-75
2021/05/03 06:41:00;;;;;;;11.60;7.47;;;7.00;99.90;;;;;;5032189;28;20291;-75
2021/05/03 06:43:27;;;;;;;9.55;6.85;;;7.00;99.90;;;;;;5032335;28;20208;-75
2021/05/03 06:45:56;;;;;;;8.38;6.43;;;7.10;99.90;;;;;;5032404;28;20274;-77
2021/05/03 06:48:23;;;;;;;10.68;7.90;;;7.10;99.90;;;;;;5031650;28;20242;-75
2021/05/03 06:50:50;;;;;;;8.60;6.85;;;7.10;99.90;;;;;;5033821;28;20251;-75
2021/05/03 06:53:17;;;;;;;14.57;9.13;;;7.10;99.90;;;;;;5033082;28;20196;-75
2021/05/03 06:55:45;;;;;;;12.50;7.38;;;7.00;99.90;;;;;;5031982;28;20228;-75
2021/05/03 06:58:12;;;;;;;9.52;8.25;;;6.90;99.90;;;;;;5032368;28;20213;-74
2021/05/03 07:00:40;;;;;;;8.77;6.38;;;6.80;99.90;;;;;;5031826;28;20208;-75
2021/05/03 07:03:08;;;;;;;8.50;5.95;;;6.80;99.90;;;;;;5032311;28;20566;-76
2021/05/03 07:05:35;;;;;;;9.73;6.80;;;6.70;99.90;;;;;;5031910;28;20236;-76
2021/05/03 07:08:02;;;;;;;8.48;6.65;;;6.70;99.90;;;;;;5032036;28;20625;-75
2021/05/03 07:10:29;;;;;;;6.53;5.82;;;6.70;99.90;;;;;;5030086;28;20197;-75
2021/05/03 07:12:56;;;;;;;6.57;5.30;;;6.80;99.90;;;;;;5031555;28;20695;-76
2021/05/03 07:15:23;;;;;;;7.15;5.80;;;6.70;99.90;;;;;;5032479;28;20219;-78
2021/05/03 07:17:50;;;;;;;8.50;6.57;;;6.60;99.90;;;;;;5032158;28;20200;-75
2021/05/03 07:20:18;;;;;;;7.70;6.55;;;6.50;99.90;;;;;;5032787;28;20207;-79
2021/05/03 07:22:46;;;;;;;11.10;7.65;;;6.50;99.90;;;;;;5027154;28;20208;-75
2021/05/03 07:25:13;;;;;;;9.32;7.38;;;6.40;99.90;;;;;;5032791;28;20262;-76
2021/05/03 07:27:41;;;;;;;7.72;6.93;;;6.40;99.90;;;;;;5033749;28;20983;-77
2021/05/03 07:30:09;;;;;;;8.10;7.20;;;6.50;99.90;;;;;;5032110;28;20216;-77
2021/05/03 07:32:38;;;;;;;12.52;6.20;;;6.50;99.90;;;;;;5038828;28;20212;-76
2021/05/03 07:35:06;;;;;;;8.88;7.82;;;6.40;99.90;;;;;;5026729;28;20224;-78
2021/05/03 07:37:34;;;;;;;11.90;8.50;;;6.40;99.90;;;;;;5034197;28;20200;-77
2021/05/03 07:40:01;;;;;;;8.10;7.30;;;6.50;99.90;;;;;;5025942;28;20209;-78
2021/05/03 07:42:28;;;;;;;8.75;7.85;;;6.50;99.90;;;;;;5032995;28;20227;-77
2021/05/03 07:44:54;;;;;;;10.07;8.65;;;6.70;99.90;;;;;;5032461;28;20259;-76
2021/05/03 07:47:21;;;;;;;8.77;7.97;;;6.70;99.90;;;;;;5033788;28;20228;-77
2021/05/03 07:49:48;;;;;;;13.45;10.63;;;6.80;99.90;;;;;;5032483;28;20237;-75
2021/05/03 07:52:14;;;;;;;12.55;10.57;;;6.90;99.90;;;;;;5032900;28;20208;-77
2021/05/03 07:54:42;;;;;;;10.88;9.50;;;6.90;99.90;;;;;;5033693;28;20251;-76
2021/05/03 07:57:09;;;;;;;11.30;9.80;;;6.80;99.90;;;;;;5032986;28;20580;-77
2021/05/03 07:59:35;;;;;;;10.80;9.75;;;6.80;99.90;;;;;;5031999;28;20213;-77
2021/05/03 08:02:02;;;;;;;13.68;9.02;;;6.80;99.90;;;;;;5032479;28;20583;-76
2021/05/03 08:04:29;;;;;;;12.05;10.85;;;7.00;99.90;;;;;;5032950;28;20204;-77
2021/05/03 08:06:59;;;;;;;10.88;9.88;;;6.90;99.90;;;;;;5032931;28;20247;-76
2021/05/03 08:09:26;;;;;;;14.77;10.75;;;7.10;99.90;;;;;;5027144;28;20228;-76
2021/05/03 08:11:55;;;;;;;15.18;9.50;;;7.00;99.90;;;;;;5047086;28;20208;-76
2021/05/03 08:14:22;;;;;;;10.48;9.25;;;7.10;99.90;;;;;;5032668;28;20196;-77
2021/05/03 08:16:51;;;;;;;12.85;11.18;;;7.10;99.90;;;;;;5033228;28;20283;-77
2021/05/03 08:19:18;;;;;;;11.77;9.80;;;7.00;99.90;;;;;;5029685;28;20205;-78
2021/05/03 08:21:45;;;;;;;13.82;11.30;;;7.10;99.90;;;;;;5036063;28;20223;-77
2021/05/03 08:24:12;;;;;;;12.60;11.10;;;7.10;99.90;;;;;;5036084;28;20266;-78
2021/05/03 08:26:39;;;;;;;14.07;10.75;;;7.00;99.90;;;;;;5034446;28;20232;-79
2021/05/03 08:29:07;;;;;;;17.70;11.23;;;7.00;99.90;;;;;;5035983;28;20201;-77
2021/05/03 08:31:34;;;;;;;14.57;12.55;;;7.00;99.90;;;;;;5030406;28;20208;-79
2021/05/03 08:34:00;;;;;;;14.85;12.90;;;7.10;99.90;;;;;;5036476;28;20209;-77
2021/05/03 08:36:27;;;;;;;15.13;12.68;;;7.10;99.90;;;;;;5037359;28;20235;-76
2021/05/03 08:38:54;;;;;;;14.38;12.15;;;7.10;99.90;;;;;;5035483;28;20213;-79
2021/05/03 08:41:21;;;;;;;13.05;11.65;;;7.10;99.90;;;;;;5032039;28;20213;-79
2021/05/03 08:43:51;;;;;;;15.52;12.35;;;7.10;99.90;;;;;;5033828;28;20287;-76
2021/05/03 08:46:27;;;;;;;12.65;11.45;;;7.00;99.90;;;;;;5034917;28;20228;-76
2021/05/03 08:49:00;;;;;;;14.85;12.20;;;6.90;99.90;;;;;;5038286;28;20201;-75
2021/05/03 08:51:38;;;;;;;19.90;13.32;;;7.00;99.90;;;;;;5051658;28;20211;-77
2021/05/03 08:54:11;;;;;;;15.60;12.45;;;7.00;99.90;;;;;;5034326;28;20283;-77
2021/05/03 08:56:37;;;;;;;11.25;9.95;;;7.10;99.90;;;;;;5034747;28;20321;-75
2021/05/03 08:59:04;;;;;;;12.45;11.15;;;7.20;99.90;;;;;;5036492;28;20626;-77
2021/05/03 09:01:33;;;;;;;13.15;10.15;;;7.40;99.90;;;;;;5035421;28;20211;-79
2021/05/03 09:04:00;;;;;;;11.27;10.10;;;7.60;99.90;;;;;;5035175;28;20203;-76
2021/05/03 09:06:27;;;;;;;12.07;10.57;;;7.70;99.90;;;;;;5034372;28;20233;-77
2021/05/03 09:09:06;;;;;;;12.30;11.07;;;7.90;99.90;;;;;;5032403;28;20205;-77
2021/05/03 09:11:35;;;;;;;15.68;10.85;;;7.70;99.90;;;;;;5034260;28;20206;-76
2021/05/03 09:14:09;;;;;;;16.25;10.95;;;7.80;99.90;;;;;;5033728;28;20265;-78
2021/05/03 09:16:44;;;;;;;10.70;9.50;;;7.90;99.90;;;;;;5034568;28;20226;-77
2021/05/03 09:19:12;;;;;;;10.40;9.30;;;7.90;99.90;;;;;;5034369;28;20208;-75
2021/05/03 09:21:41;;;;;;;11.40;9.40;;;7.90;99.90;;;;;;5034319;28;20655;-76
2021/05/03 09:24:12;;;;;;;12.35;11.05;;;8.00;99.90;;;;;;5034693;28;20223;-77
2021/05/03 09:26:45;;;;;;;12.88;11.57;;;8.00;99.90;;;;;;5026749;28;20235;-78
2021/05/03 09:29:42;;;;;;;13.30;11.93;;;8.10;99.90;;;;;;5025033;28;20243;-77
2021/05/03 09:32:19;;;;;;;12.90;11.63;;;8.20;99.90;;;;;;4995750;28;20214;-78
2021/05/03 09:34:47;;;;;;;13.13;11.82;;;8.40;99.90;;;;;;5033924;28;20571;-76
2021/05/03 09:37:27;;;;;;;13.52;12.13;;;8.50;99.90;;;;;;5034062;28;20561;-77
2021/05/03 09:40:00;;;;;;;12.50;11.20;;;8.50;99.90;;;;;;5032511;28;20207;-77
2021/05/03 09:42:46;;;;;;;17.73;14.73;;;8.40;99.90;;;;;;5024151;28;20215;-77
2021/05/03 09:45:15;;;;;;;13.15;11.93;;;8.40;99.90;;;;;;5031819;28;20433;-78
2021/05/03 09:47:43;;;;;;;19.90;13.50;;;8.60;99.90;;;;;;5026861;28;20673;-74
2021/05/03 09:50:13;;;;;;;19.50;14.98;;;8.50;99.90;;;;;;5022834;28;20218;-75
2021/05/03 09:53:00;;;;;;;19.17;14.10;;;8.50;99.90;;;;;;5029225;28;20658;-77
2021/05/03 09:55:39;;;;;;;19.42;16.30;;;8.50;99.90;;;;;;5026990;28;20299;-77
2021/05/03 09:58:11;;;;;;;25.73;18.15;;;8.40;99.90;;;;;;5020859;28;20207;-77
2021/05/03 10:00:39;;;;;;;22.65;19.55;;;8.50;99.90;;;;;;5031869;28;20214;-78
2021/05/03 10:03:37;;;;;;;25.02;21.52;;;8.50;99.90;;;;;;5036111;28;20285;-78
2021/05/03 10:06:06;;;;;;;29.10;21.98;;;8.50;99.90;;;;;;5035862;28;20584;-76
2021/05/03 10:08:33;;;;;;;31.42;26.20;;;8.60;99.90;;;;;;5047291;28;20230;-76
2021/05/03 10:11:03;;;;;;;28.23;24.27;;;8.60;99.90;;;;;;5034598;28;20235;-77
2021/05/03 10:13:30;;;;;;;28.50;24.42;;;8.70;99.90;;;;;;5034343;28;20214;-77
2021/05/03 10:15:59;;;;;;;32.08;28.40;;;8.80;99.90;;;;;;5033357;28;20240;-77
2021/05/03 10:18:27;;;;;;;32.78;28.98;;;8.80;99.90;;;;;;5025207;28;20199;-76
2021/05/03 10:20:56;;;;;;;31.00;27.90;;;8.80;99.90;;;;;;5025971;28;20623;-77
2021/05/03 10:23:24;;;;;;;32.60;28.52;;;8.80;99.90;;;;;;5026662;28;20745;-78
2021/05/03 10:25:56;;;;;;;35.38;31.63;;;9.00;99.90;;;;;;5032894;28;20248;-78
2021/05/03 10:28:23;;;;;;;31.08;27.77;;;9.00;99.90;;;;;;5032225;28;20259;-77
2021/05/03 10:30:50;;;;;;;31.60;26.75;;;9.00;99.90;;;;;;5033944;28;20204;-76
2021/05/03 10:33:17;;;;;;;28.55;25.25;;;8.90;99.90;;;;;;5030057;28;20612;-76
2021/05/03 10:35:45;;;;;;;33.35;28.42;;;9.00;99.90;;;;;;5028198;28;20318;-77
2021/05/03 10:38:36;;;;;;;29.05;26.05;;;9.10;99.90;;;;;;5032467;28;20254;-76
2021/05/03 10:41:19;;;;;;;31.85;28.55;;;9.00;99.90;;;;;;5032970;28;20671;-76
2021/05/03 10:43:46;;;;;;;34.17;28.67;;;9.10;99.90;;;;;;5033928;28;20210;-76
2021/05/03 10:49:36;;;;;;;24.45;21.85;;;9.20;99.90;;;;;;5032825;28;20204;-74
2021/05/03 10:52:48;;;;;;;29.20;24.77;;;9.40;99.90;;;;;;5024815;28;20219;-77
2021/05/03 10:55:17;;;;;;;23.58;21.08;;;9.90;99.90;;;;;;5033332;28;20232;-74
2021/05/03 10:57:58;;;;;;;24.20;21.73;;;10.50;99.90;;;;;;5032923;28;20200;-78
2021/05/03 11:00:33;;;;;;;24.58;22.05;;;10.90;99.90;;;;;;5030615;28;20282;-77
2021/05/03 11:03:00;;;;;;;30.15;24.85;;;11.30;99.90;;;;;;5031419;28;20278;-76
2021/05/03 11:05:28;;;;;;;27.20;22.98;;;11.50;99.90;;;;;;5032536;28;20565;-77
2021/05/03 11:08:31;;;;;;;28.05;23.92;;;11.50;99.90;;;;;;5033501;28;20222;-77
2021/05/03 11:11:10;;;;;;;23.90;21.33;;;11.40;99.90;;;;;;5032825;28;20212;-76
2021/05/03 11:14:01;;;;;;;27.00;24.20;;;11.60;99.90;;;;;;5032960;28;20232;-76
2021/05/03 11:16:56;;;;;;;27.00;24.05;;;11.70;99.90;;;;;;5030676;28;20243;-75
2021/05/03 11:19:40;;;;;;;25.48;22.73;;;12.20;99.90;;;;;;5033614;28;20800;-77
2021/05/03 11:22:09;;;;;;;25.25;22.70;;;12.60;99.90;;;;;;5038147;28;20202;-74
2021/05/03 11:24:45;;;;;;;25.02;22.48;;;12.80;99.90;;;;;;5033778;28;20550;-76
2021/05/03 11:27:17;;;;;;;25.42;22.83;;;12.80;99.90;;;;;;5033596;28;20317;-74
2021/05/03 11:29:48;;;;;;;25.75;23.20;;;12.50;99.90;;;;;;5029862;28;20212;-76
2021/05/03 11:32:15;;;;;;;24.70;22.30;;;12.40;99.90;;;;;;5032229;28;20650;-74
2021/05/03 11:34:59;;;;;;;24.60;22.00;;;12.50;99.90;;;;;;5028388;28;20201;-75
2021/05/03 11:37:34;;;;;;;23.05;20.85;;;12.40;99.90;;;;;;5030204;28;20231;-76
2021/05/03 11:40:07;;;;;;;23.65;21.33;;;12.50;99.90;;;;;;5013833;28;20210;-79
2021/05/03 11:45:28;;;;;;;23.83;21.48;;;13.10;99.90;;;;;;5026772;28;20238;-75
2021/05/03 11:47:56;;;;;;;26.55;24.02;;;13.30;99.90;;;;;;5011810;28;20309;-77
2021/05/03 11:50:23;;;;;;;25.02;22.73;;;13.40;99.90;;;;;;5031176;28;20218;-75
2021/05/03 11:52:50;;;;;;;25.38;22.70;;;13.30;99.90;;;;;;5031735;28;20282;-77
2021/05/03 11:55:19;;;;;;;25.80;23.13;;;13.10;99.90;;;;;;5032210;28;20225;-75
2021/05/03 11:57:47;;;;;;;27.45;24.73;;;12.80;99.90;;;;;;5035547;28;20210;-77
2021/05/03 12:00:17;;;;;;;25.20;22.63;;;12.80;99.90;;;;;;5035028;28;20206;-74
2021/05/03 12:02:44;;;;;;;26.52;24.08;;;12.60;99.90;;;;;;5033881;28;20211;-76
2021/05/03 12:05:15;;;;;;;26.13;23.55;;;12.50;99.90;;;;;;5034511;28;20223;-76
2021/05/03 12:07:43;;;;;;;26.60;24.10;;;12.30;99.90;;;;;;5033720;28;20244;-76
2021/05/03 12:10:12;;;;;;;28.83;25.88;;;12.20;99.90;;;;;;5034899;28;20263;-77
2021/05/03 12:12:40;;;;;;;33.72;28.20;;;11.90;99.90;;;;;;5045199;28;20407;-74
2021/05/03 12:15:10;;;;;;;42.35;36.63;;;11.60;99.90;;;;;;5037245;28;20224;-79
2021/05/03 12:17:37;;;;;;;25.77;23.02;;;11.00;99.90;;;;;;5038654;28;20207;-76
2021/05/03 12:20:07;;;;;;;24.83;21.77;;;10.10;99.90;;;;;;5038712;28;20200;-78
2021/05/03 12:22:35;;;;;;;20.80;18.75;;;9.40;99.90;;;;;;5038490;28;20249;-79
2021/05/03 12:25:06;;;;;;;27.63;23.17;;;9.00;99.90;;;;;;5037715;28;20230;-77
2021/05/03 12:27:34;;;;;;;23.58;20.50;;;8.80;99.90;;;;;;5038445;28;20326;-77
2021/05/03 12:30:02;;;;;;;23.13;20.63;;;8.60;99.90;;;;;;5024625;28;20515;-76
2021/05/03 12:32:35;;;;;;;23.05;20.75;;;8.60;99.90;;;;;;5037524;28;20257;-78
2021/05/03 12:35:07;;;;;;;27.40;19.80;;;8.70;99.90;;;;;;5036226;28;20242;-76
2021/05/03 12:37:34;;;;;;;22.27;19.90;;;8.90;99.90;;;;;;5030210;28;20200;-78
2021/05/03 12:40:06;;;;;;;25.88;21.00;;;9.10;99.90;;;;;;5034795;28;20638;-77
2021/05/03 12:42:39;;;;;;;22.88;20.58;;;9.20;99.90;;;;;;5035911;28;20235;-78
2021/05/03 12:45:24;;;;;;;22.77;20.27;;;9.40;99.90;;;;;;5035168;28;20667;-77
2021/05/03 12:50:46;;;;;;;15.40;13.90;;;9.70;99.90;;;;;;5043685;28;20212;-79
2021/05/03 12:53:19;;;;;;;17.25;15.55;;;9.90;99.90;;;;;;5036437;28;20218;-78
2021/05/03 12:56:01;;;;;;;17.48;15.65;;;9.80;99.90;;;;;;5035099;28;20231;-76
2021/05/03 12:58:34;;;;;;;17.75;15.90;;;9.70;99.90;;;;;;5019580;28;20274;-78
2021/05/03 13:01:09;;;;;;;21.17;16.60;;;9.70;99.90;;;;;;5035095;28;20226;-76
2021/05/03 13:03:50;;;;;;;16.65;15.05;;;9.40;99.90;;;;;;5036487;28;20216;-76
2021/05/03 13:06:27;;;;;;;16.50;14.77;;;9.20;99.90;;;;;;5021410;28;20632;-78
2021/05/03 13:12:02;;;;;;;20.58;15.15;;;9.00;99.90;;;;;;5022565;28;20633;-79
2021/05/03 13:29:40;;;;;;;6.90;5.75;;;10.00;99.90;;;;;;5028242;28;20561;-79
2021/05/03 13:32:09;;;;;;;8.70;6.63;;;10.70;99.90;;;;;;5032858;28;20283;-78
2021/05/03 13:34:36;;;;;;;6.07;5.35;;;11.10;99.90;;;;;;5034108;28;20295;-77